createdAt,value
2017-12-25T00:00:59.948Z,90.10
2017-12-25T00:03:35.172Z,90.10
2017-12-25T00:06:08.196Z,90.20
2017-12-25T00:08:39.154Z,90.20
2017-12-25T00:11:10.039Z,88.80
2017-12-25T00:13:39.405Z,88.80
2017-12-25T00:16:08.761Z,89.20
2017-12-25T00:18:40.042Z,88.70
2017-12-25T00:21:10.029Z,87.90
2017-12-25T00:23:39.676Z,87.90
2017-12-25T00:26:09.556Z,87.20
2017-12-25T00:28:38.763Z,87.20
2017-12-25T00:31:08.376Z,87.30
2017-12-25T00:36:38.381Z,87.30
2017-12-25T00:39:07.478Z,87.30
2017-12-25T00:41:37.364Z,88.90
2017-12-25T00:44:07.867Z,85.70
2017-12-25T00:46:37.724Z,86.50
2017-12-25T00:49:10.617Z,87.30
2017-12-25T00:51:41.107Z,87.30
2017-12-25T00:54:12.509Z,88.40
2017-12-25T00:56:42.448Z,88.80
2017-12-25T00:59:12.672Z,89.00
2017-12-25T01:01:43.370Z,88.80
2017-12-25T01:04:12.876Z,88.70
2017-12-25T01:06:42.009Z,88.80
2017-12-25T01:09:12.056Z,89.40
2017-12-25T01:11:41.186Z,89.40
2017-12-25T01:14:12.028Z,90.00
2017-12-25T01:16:41.220Z,89.80
2017-12-25T01:19:10.653Z,89.20
2017-12-25T01:21:40.492Z,89.70
2017-12-25T01:24:10.696Z,89.70
2017-12-25T01:26:41.003Z,90.30
2017-12-25T01:29:10.904Z,90.70
2017-12-25T01:31:39.924Z,90.50
2017-12-25T01:34:10.496Z,90.60
2017-12-25T01:36:41.393Z,90.60
2017-12-25T01:39:11.388Z,90.40
2017-12-25T01:41:40.586Z,90.40
2017-12-25T01:44:11.346Z,90.10
2017-12-25T01:46:43.252Z,89.80
2017-12-25T01:49:12.631Z,89.80
2017-12-25T01:51:41.928Z,89.80
2017-12-25T01:54:11.621Z,90.00
2017-12-25T01:56:41.686Z,90.00
2017-12-25T01:59:11.239Z,90.00
2017-12-25T02:01:42.136Z,90.00
2017-12-25T02:04:11.924Z,89.70
2017-12-25T02:08:53.769Z,90.00
2017-12-25T02:11:23.819Z,90.00
2017-12-25T02:13:53.910Z,90.10
2017-12-25T02:16:23.078Z,90.00
2017-12-25T02:18:52.105Z,90.00
2017-12-25T02:21:21.191Z,89.80
2017-12-25T02:23:50.220Z,90.00
2017-12-25T02:26:20.205Z,90.20
2017-12-25T02:28:49.515Z,90.20
2017-12-25T02:31:18.648Z,90.10
2017-12-25T02:33:47.797Z,90.30
2017-12-25T02:36:17.166Z,90.10
2017-12-25T02:38:46.331Z,90.20
2017-12-25T02:41:16.058Z,90.20
2017-12-25T02:43:45.213Z,90.20
2017-12-25T02:46:14.297Z,90.20
2017-12-25T02:48:43.446Z,90.00
2017-12-25T02:51:13.338Z,90.10
2017-12-25T02:53:43.525Z,89.50
2017-12-25T02:56:28.333Z,89.50
2017-12-25T02:59:09.448Z,89.80
2017-12-25T03:01:38.844Z,89.80
2017-12-25T03:04:08.143Z,89.70
2017-12-25T03:06:37.235Z,89.60
2017-12-25T03:09:07.080Z,89.30
2017-12-25T03:11:36.347Z,89.80
2017-12-25T03:14:05.374Z,90.10
2017-12-25T03:16:34.522Z,90.10
2017-12-25T03:19:03.494Z,90.30
2017-12-25T03:21:33.217Z,90.10
2017-12-25T03:24:03.038Z,90.20
2017-12-25T03:26:34.790Z,90.10
2017-12-25T03:29:04.234Z,90.40
2017-12-25T03:31:33.988Z,90.80
2017-12-25T03:34:03.192Z,91.20
2017-12-25T03:36:32.473Z,91.20
2017-12-25T03:39:01.726Z,91.10
2017-12-25T03:41:31.005Z,91.30
2017-12-25T03:44:00.437Z,91.10
2017-12-25T03:46:29.889Z,91.00
2017-12-25T03:48:59.784Z,91.20
2017-12-25T03:51:29.770Z,91.10
2017-12-25T03:53:59.049Z,91.10
2017-12-25T03:56:37.048Z,91.10
2017-12-25T03:59:16.857Z,90.70
2017-12-25T04:01:46.537Z,90.60
2017-12-25T04:04:15.689Z,90.60
2017-12-25T04:06:44.938Z,90.60
2017-12-25T04:09:14.200Z,90.50
2017-12-25T04:11:43.660Z,90.40
2017-12-25T04:14:12.903Z,90.30
2017-12-25T04:16:42.123Z,90.30
2017-12-25T04:19:11.179Z,90.20
2017-12-25T04:21:40.936Z,90.20
2017-12-25T04:24:10.423Z,90.20
2017-12-25T04:26:39.365Z,90.10
2017-12-25T04:29:08.491Z,90.00
2017-12-25T04:31:38.658Z,90.00
2017-12-25T04:34:07.699Z,90.00
2017-12-25T04:36:37.502Z,90.00
2017-12-25T04:39:06.521Z,90.00
2017-12-25T04:41:35.569Z,90.00
2017-12-25T04:44:04.701Z,89.80
2017-12-25T04:46:34.452Z,89.00
2017-12-25T04:49:04.186Z,89.30
2017-12-25T04:51:34.778Z,89.00
2017-12-25T04:54:03.765Z,89.00
2017-12-25T04:56:33.001Z,88.80
2017-12-25T04:59:02.191Z,87.90
2017-12-25T05:01:31.443Z,87.60
2017-12-25T05:04:00.768Z,87.30
2017-12-25T05:06:30.207Z,87.50
2017-12-25T05:08:59.747Z,87.60
2017-12-25T05:11:29.729Z,86.80
2017-12-25T05:13:58.857Z,86.80
2017-12-25T05:16:28.594Z,86.90
2017-12-25T05:18:57.571Z,86.90
2017-12-25T05:21:26.649Z,87.10
2017-12-25T05:23:56.507Z,86.20
2017-12-25T05:26:25.474Z,86.20
2017-12-25T05:28:54.776Z,86.20
2017-12-25T05:31:23.772Z,85.70
2017-12-25T05:33:52.944Z,85.30
2017-12-25T05:36:22.729Z,85.00
2017-12-25T05:38:52.729Z,85.30
2017-12-25T05:41:21.736Z,85.20
2017-12-25T05:43:50.820Z,85.80
2017-12-25T05:46:19.869Z,85.70
2017-12-25T05:48:49.810Z,85.30
2017-12-25T05:51:18.832Z,85.30
2017-12-25T05:53:48.008Z,85.30
2017-12-25T05:56:17.271Z,85.30
2017-12-25T05:58:46.765Z,85.40
2017-12-25T06:01:15.852Z,85.40
2017-12-25T06:03:44.853Z,85.60
2017-12-25T06:06:14.030Z,85.40
2017-12-25T06:08:43.221Z,85.40
2017-12-25T06:11:12.360Z,85.30
2017-12-25T06:13:41.564Z,85.20
2017-12-25T06:16:10.861Z,85.10
2017-12-25T06:18:40.074Z,85.20
2017-12-25T06:21:09.258Z,86.00
2017-12-25T06:23:39.306Z,85.30
2017-12-25T06:26:08.552Z,85.30
2017-12-25T06:28:38.133Z,85.20
2017-12-25T06:31:07.333Z,85.10
2017-12-25T06:33:36.377Z,85.30
2017-12-25T06:36:05.445Z,85.50
2017-12-25T06:38:34.430Z,85.90
2017-12-25T06:41:03.565Z,85.50
2017-12-25T06:43:32.604Z,85.50
2017-12-25T06:46:01.572Z,85.90
2017-12-25T06:48:30.527Z,85.80
2017-12-25T06:50:59.487Z,85.90
2017-12-25T06:53:28.528Z,85.80
2017-12-25T06:55:57.618Z,86.80
2017-12-25T06:58:27.655Z,86.30
2017-12-25T07:00:56.579Z,86.30
2017-12-25T07:03:25.660Z,85.90
2017-12-25T07:05:55.184Z,85.60
2017-12-25T07:08:24.407Z,86.50
2017-12-25T07:10:54.067Z,86.00
2017-12-25T07:13:23.269Z,86.10
2017-12-25T07:15:53.112Z,85.90
2017-12-25T07:18:22.168Z,85.80
2017-12-25T07:20:51.214Z,85.80
2017-12-25T07:23:20.278Z,85.90
2017-12-25T07:25:49.400Z,85.90
2017-12-25T07:28:19.276Z,86.10
2017-12-25T07:30:48.491Z,86.10
2017-12-25T07:33:17.750Z,86.00
2017-12-25T07:35:46.894Z,85.90
2017-12-25T07:38:16.150Z,86.40
2017-12-25T07:40:45.283Z,86.30
2017-12-25T07:43:14.491Z,85.90
2017-12-25T07:45:43.475Z,86.00
2017-12-25T07:48:12.548Z,86.00
2017-12-25T07:50:41.589Z,86.10
2017-12-25T07:53:11.590Z,86.70
2017-12-25T07:55:41.761Z,86.70
2017-12-25T07:58:10.911Z,86.60
2017-12-25T08:00:40.872Z,86.50
2017-12-25T08:03:10.214Z,86.50
2017-12-25T08:05:39.530Z,86.40
2017-12-25T08:08:08.723Z,86.70
2017-12-25T08:10:37.915Z,86.60
2017-12-25T08:13:07.041Z,86.40
2017-12-25T08:15:36.157Z,86.50
2017-12-25T08:18:05.334Z,86.40
2017-12-25T08:20:35.291Z,86.50
2017-12-25T08:23:05.575Z,86.50
2017-12-25T08:25:35.568Z,85.70
2017-12-25T08:28:04.796Z,85.70
2017-12-25T08:30:33.850Z,85.90
2017-12-25T08:33:03.045Z,85.80
2017-12-25T08:35:33.277Z,86.20
2017-12-25T08:38:02.305Z,86.20
2017-12-25T08:40:32.572Z,86.30
2017-12-25T08:43:02.297Z,86.30
2017-12-25T08:45:31.461Z,86.40
2017-12-25T08:48:00.564Z,86.30
2017-12-25T08:50:29.787Z,86.30
2017-12-25T08:53:00.195Z,86.60
2017-12-25T08:55:29.382Z,85.90
2017-12-25T08:57:58.574Z,85.50
2017-12-25T09:00:27.664Z,85.50
2017-12-25T09:02:56.743Z,85.30
2017-12-25T09:05:27.000Z,85.80
2017-12-25T09:07:56.244Z,85.80
2017-12-25T09:10:25.482Z,86.10
2017-12-25T09:12:54.683Z,85.80
2017-12-25T09:15:23.996Z,85.90
2017-12-25T09:17:53.816Z,85.80
2017-12-25T09:20:23.938Z,85.80
2017-12-25T09:22:53.099Z,85.70
2017-12-25T09:25:23.506Z,85.40
2017-12-25T09:27:52.748Z,85.40
2017-12-25T09:30:21.982Z,85.60
2017-12-25T09:32:52.756Z,86.10
2017-12-25T09:35:22.978Z,86.20
2017-12-25T09:37:53.017Z,85.90
2017-12-25T09:40:22.209Z,85.80
2017-12-25T09:42:51.686Z,85.70
2017-12-25T09:45:21.086Z,85.70
2017-12-25T09:47:51.048Z,85.20
2017-12-25T09:50:20.389Z,85.10
2017-12-25T09:52:50.498Z,85.40
2017-12-25T09:55:19.761Z,85.40
2017-12-25T09:57:49.012Z,85.00
2017-12-25T10:00:19.104Z,84.90
2017-12-25T10:02:48.358Z,84.90
2017-12-25T10:05:18.312Z,84.70
2017-12-25T10:07:47.554Z,84.70
2017-12-25T10:10:17.540Z,84.50
2017-12-25T10:12:46.759Z,84.50
2017-12-25T10:15:16.600Z,83.70
2017-12-25T10:17:46.328Z,83.80
2017-12-25T10:20:15.577Z,83.80
2017-12-25T10:22:44.968Z,84.00
2017-12-25T10:25:14.259Z,83.40
2017-12-25T10:27:44.383Z,83.10
2017-12-25T10:30:13.585Z,83.10
2017-12-25T10:32:42.832Z,83.40
2017-12-25T10:35:11.972Z,82.80
2017-12-25T10:37:41.172Z,82.50
2017-12-25T10:40:11.065Z,81.30
2017-12-25T10:42:40.654Z,80.60
2017-12-25T10:45:09.649Z,80.00
2017-12-25T10:47:38.834Z,79.60
2017-12-25T10:50:08.066Z,80.50
2017-12-25T10:52:37.405Z,80.80
2017-12-25T10:55:07.637Z,80.60
2017-12-25T10:57:36.910Z,80.50
2017-12-25T11:00:06.246Z,80.40
2017-12-25T11:02:36.010Z,80.50
2017-12-25T11:05:04.996Z,80.50
2017-12-25T11:07:34.686Z,79.10
2017-12-25T11:10:04.383Z,78.50
2017-12-25T11:12:33.676Z,77.50
2017-12-25T11:15:03.846Z,75.00
2017-12-25T11:17:32.992Z,75.00
2017-12-25T11:20:03.158Z,76.40
2017-12-25T11:22:32.271Z,76.30
2017-12-25T11:25:01.326Z,75.70
2017-12-25T11:27:30.385Z,74.90
2017-12-25T11:30:00.276Z,73.70
2017-12-25T11:32:30.131Z,73.50
2017-12-25T11:34:59.199Z,73.50
2017-12-25T11:37:29.385Z,73.10
2017-12-25T11:39:59.454Z,74.00
2017-12-25T11:42:28.910Z,73.90
2017-12-25T11:44:58.390Z,74.10
2017-12-25T11:47:27.489Z,74.20
2017-12-25T11:49:56.724Z,74.70
2017-12-25T11:52:26.000Z,75.90
2017-12-25T11:55:04.185Z,75.80
2017-12-25T11:57:38.444Z,75.10
2017-12-25T12:00:09.015Z,74.70
2017-12-25T12:02:38.917Z,74.70
2017-12-25T12:05:09.606Z,73.00
2017-12-25T12:07:40.529Z,72.50
2017-12-25T12:10:09.988Z,72.50
2017-12-25T12:12:40.080Z,72.90
2017-12-25T12:15:09.736Z,72.90
2017-12-25T12:17:39.972Z,73.40
2017-12-25T12:20:08.982Z,73.40
2017-12-25T12:22:38.031Z,73.60
2017-12-25T12:25:07.889Z,74.20
2017-12-25T12:27:37.016Z,74.20
2017-12-25T12:30:07.335Z,74.20
2017-12-25T12:32:38.047Z,74.40
2017-12-25T12:35:07.156Z,74.70
2017-12-25T12:37:36.220Z,74.80
2017-12-25T12:40:05.340Z,74.30
2017-12-25T12:42:34.565Z,74.30
2017-12-25T12:45:03.913Z,74.10
2017-12-25T12:47:33.116Z,75.10
2017-12-25T12:50:02.564Z,74.30
2017-12-25T12:52:31.813Z,74.00
2017-12-25T12:55:00.903Z,74.60
2017-12-25T12:57:31.127Z,77.10
2017-12-25T13:00:01.758Z,76.40
2017-12-25T13:02:31.625Z,75.00
2017-12-25T13:05:01.398Z,74.20
2017-12-25T13:07:30.478Z,74.20
2017-12-25T13:10:00.776Z,75.90
2017-12-25T13:12:30.665Z,75.90
2017-12-25T13:14:59.780Z,75.90
2017-12-25T13:17:29.618Z,76.20
2017-12-25T13:19:59.635Z,76.10
2017-12-25T13:22:31.768Z,76.20
2017-12-25T13:25:03.796Z,76.20
2017-12-25T13:27:33.507Z,76.00
2017-12-25T13:30:02.737Z,76.10
2017-12-25T13:32:32.697Z,76.40
2017-12-25T13:35:02.173Z,76.00
2017-12-25T13:37:31.183Z,76.00
2017-12-25T13:40:00.991Z,76.00
2017-12-25T13:42:30.990Z,75.90
2017-12-25T13:45:00.137Z,75.90
2017-12-25T13:47:29.253Z,76.10
2017-12-25T13:50:05.236Z,75.50
2017-12-25T13:52:51.061Z,75.20
2017-12-25T13:55:32.847Z,75.20
2017-12-25T13:58:10.247Z,75.40
2017-12-25T14:00:39.977Z,76.10
2017-12-25T14:03:09.736Z,77.10
2017-12-25T14:05:38.937Z,76.50
2017-12-25T14:08:08.112Z,76.90
2017-12-25T14:10:38.261Z,77.30
2017-12-25T14:13:08.074Z,78.00
2017-12-25T14:15:37.460Z,78.20
2017-12-25T14:18:07.253Z,78.30
2017-12-25T14:20:36.456Z,78.40
2017-12-25T14:23:05.641Z,78.40
2017-12-25T14:25:34.885Z,78.70
2017-12-25T14:28:04.921Z,79.10
2017-12-25T14:30:35.016Z,79.10
2017-12-25T14:33:04.065Z,79.10
2017-12-25T14:35:33.572Z,79.50
2017-12-25T14:38:02.701Z,79.20
2017-12-25T14:40:31.720Z,79.10
2017-12-25T14:43:01.869Z,79.30
2017-12-25T14:45:32.018Z,79.20
2017-12-25T14:48:04.143Z,79.20
2017-12-25T14:50:33.267Z,79.00
2017-12-25T14:53:02.439Z,79.30
2017-12-25T14:55:31.444Z,79.40
2017-12-25T14:58:00.546Z,79.40
2017-12-25T15:00:29.908Z,78.40
2017-12-25T15:02:59.899Z,78.90
2017-12-25T15:05:28.878Z,78.90
2017-12-25T15:07:57.964Z,78.90
2017-12-25T15:10:27.041Z,79.70
2017-12-25T15:12:56.351Z,79.90
2017-12-25T15:15:25.422Z,79.80
2017-12-25T15:17:55.832Z,80.30
2017-12-25T15:20:31.289Z,79.40
2017-12-25T15:23:06.711Z,79.40
2017-12-25T15:25:36.006Z,75.80
2017-12-25T15:28:05.038Z,75.50
2017-12-25T15:30:34.200Z,75.90
2017-12-25T15:33:04.233Z,77.20
2017-12-25T15:35:34.197Z,77.40
2017-12-25T15:38:03.461Z,77.40
2017-12-25T15:40:33.300Z,78.20
2017-12-25T15:43:02.542Z,78.20
2017-12-25T15:45:31.707Z,78.60
2017-12-25T15:48:00.828Z,78.80
2017-12-25T15:50:30.084Z,79.00
2017-12-25T15:52:59.076Z,79.10
2017-12-25T15:55:28.574Z,79.00
2017-12-25T15:58:00.266Z,79.40
2017-12-25T16:00:29.894Z,79.40
2017-12-25T16:03:01.342Z,79.70
2017-12-25T16:05:32.620Z,79.60
2017-12-25T16:08:08.528Z,79.60
2017-12-25T16:10:43.064Z,79.60
2017-12-25T16:13:21.438Z,79.30
2017-12-25T16:15:52.037Z,79.50
2017-12-25T16:18:21.738Z,80.10
2017-12-25T16:20:51.247Z,80.40
2017-12-25T16:23:20.774Z,80.50
2017-12-25T16:25:51.499Z,80.60
2017-12-25T16:28:20.680Z,80.40
2017-12-25T16:30:49.820Z,81.00
2017-12-25T16:33:19.057Z,81.20
2017-12-25T16:35:49.235Z,81.40
2017-12-25T16:38:18.280Z,81.50
2017-12-25T16:40:47.407Z,81.80
2017-12-25T16:43:17.264Z,82.00
2017-12-25T16:45:52.024Z,82.00
2017-12-25T16:48:27.710Z,82.20
2017-12-25T16:51:00.799Z,82.00
2017-12-25T16:53:31.858Z,82.10
2017-12-25T16:56:02.080Z,82.30
2017-12-25T16:58:31.823Z,82.40
2017-12-25T17:01:01.016Z,82.20
2017-12-25T17:03:30.279Z,82.50
2017-12-25T17:05:59.314Z,82.00
2017-12-25T17:08:28.428Z,82.20
2017-12-25T17:10:57.476Z,81.70
2017-12-25T17:13:26.475Z,81.60
2017-12-25T17:15:56.696Z,82.00
2017-12-25T17:18:25.788Z,81.50
2017-12-25T17:20:55.167Z,81.40
2017-12-25T17:23:24.202Z,81.10
2017-12-25T17:25:53.252Z,80.60
2017-12-25T17:28:22.646Z,80.90
2017-12-25T17:30:52.682Z,80.30
2017-12-25T17:33:22.715Z,80.30
2017-12-25T17:35:51.866Z,80.30
2017-12-25T17:38:24.975Z,80.00
2017-12-25T17:40:54.486Z,80.20
2017-12-25T17:43:23.551Z,79.80
2017-12-25T17:45:58.642Z,80.00
2017-12-25T17:48:27.657Z,80.20
2017-12-25T17:50:56.739Z,79.60
2017-12-25T17:53:26.000Z,79.40
2017-12-25T17:55:58.048Z,79.70
2017-12-25T17:58:32.436Z,79.60
2017-12-25T18:01:06.954Z,78.70
2017-12-25T18:03:36.750Z,78.50
2017-12-25T18:06:06.043Z,78.40
2017-12-25T18:08:35.523Z,78.40
2017-12-25T18:11:05.392Z,78.80
2017-12-25T18:13:34.489Z,78.90
2017-12-25T18:16:03.862Z,78.90
2017-12-25T18:18:33.092Z,79.20
2017-12-25T18:21:02.630Z,79.20
2017-12-25T18:23:32.795Z,79.20
2017-12-25T18:26:01.904Z,79.30
2017-12-25T18:28:31.085Z,79.40
2017-12-25T18:31:00.205Z,79.60
2017-12-25T18:33:29.921Z,79.50
2017-12-25T18:35:59.018Z,79.40
2017-12-25T18:38:28.576Z,79.80
2017-12-25T18:40:57.887Z,80.50
2017-12-25T18:43:27.170Z,81.00
2017-12-25T18:45:57.789Z,81.70
2017-12-25T18:48:34.709Z,82.50
2017-12-25T18:51:04.158Z,82.40
2017-12-25T18:53:33.702Z,82.50
2017-12-25T18:56:02.942Z,82.70
2017-12-25T18:58:32.247Z,82.00
2017-12-25T19:01:01.754Z,81.60
2017-12-25T19:03:31.281Z,81.50
2017-12-25T19:06:01.913Z,81.40
2017-12-25T19:08:32.194Z,81.20
2017-12-25T19:11:01.300Z,81.20
2017-12-25T19:13:30.598Z,81.30
2017-12-25T19:16:00.045Z,81.40
2017-12-25T19:19:00.354Z,81.10
2017-12-25T19:21:31.798Z,80.60
2017-12-25T19:24:02.704Z,80.60
2017-12-25T19:26:33.079Z,80.60
2017-12-25T19:29:03.131Z,80.60
2017-12-25T19:31:34.761Z,80.60
2017-12-25T19:34:04.295Z,80.40
2017-12-25T19:36:37.185Z,80.20
2017-12-25T19:39:07.754Z,80.30
2017-12-25T19:41:37.918Z,80.50
2017-12-25T19:44:07.520Z,80.50
2017-12-25T19:46:37.460Z,80.90
2017-12-25T19:49:06.739Z,80.70
2017-12-25T19:51:37.159Z,80.80
2017-12-25T19:54:07.685Z,81.40
2017-12-25T19:56:37.588Z,81.40
2017-12-25T19:59:09.371Z,81.70
2017-12-25T20:01:40.274Z,81.70
2017-12-25T20:04:11.245Z,81.60
2017-12-25T20:06:40.752Z,81.60
2017-12-25T20:09:10.756Z,81.60
2017-12-25T20:11:40.704Z,81.80
2017-12-25T20:14:10.163Z,81.80
2017-12-25T20:16:39.700Z,81.80
2017-12-25T20:19:18.462Z,82.10
2017-12-25T20:21:59.229Z,82.00
2017-12-25T20:24:28.645Z,81.60
2017-12-25T20:26:58.626Z,81.50
2017-12-25T20:29:28.426Z,81.80
2017-12-25T20:31:57.535Z,82.00
2017-12-25T20:34:26.637Z,81.90
2017-12-25T20:36:56.265Z,81.90
2017-12-25T20:39:25.342Z,81.80
2017-12-25T20:41:54.570Z,82.00
2017-12-25T20:44:23.982Z,82.90
2017-12-25T20:46:53.174Z,81.80
2017-12-25T20:49:23.018Z,81.80
2017-12-25T20:51:52.329Z,82.30
2017-12-25T20:54:26.684Z,82.10
2017-12-25T20:56:55.886Z,82.10
2017-12-25T20:59:25.527Z,82.30
2017-12-25T21:01:56.139Z,82.80
2017-12-25T21:04:26.218Z,82.80
2017-12-25T21:06:55.817Z,82.70
2017-12-25T21:09:25.091Z,82.70
2017-12-25T21:11:54.165Z,83.30
2017-12-25T21:14:23.546Z,83.50
2017-12-25T21:16:52.619Z,84.40
2017-12-25T21:19:21.810Z,84.10
2017-12-25T21:21:51.243Z,83.10
2017-12-25T21:24:20.549Z,83.00
2017-12-25T21:26:51.203Z,83.30
2017-12-25T21:29:20.447Z,83.40
2017-12-25T21:31:50.225Z,83.60
2017-12-25T21:34:19.551Z,83.70
2017-12-25T21:36:57.702Z,83.90
2017-12-25T21:39:32.595Z,84.40
2017-12-25T21:42:06.639Z,84.70
2017-12-25T21:44:36.720Z,84.60
2017-12-25T21:47:05.932Z,84.70
2017-12-25T21:49:35.082Z,85.10
2017-12-25T21:52:05.294Z,85.50
2017-12-25T21:54:35.475Z,86.20
2017-12-25T21:57:12.940Z,86.30
2017-12-25T21:59:49.002Z,87.10
2017-12-25T22:02:18.396Z,87.10
2017-12-25T22:04:49.101Z,87.70
2017-12-25T22:07:18.615Z,87.20
2017-12-25T22:09:48.677Z,86.50
2017-12-25T22:12:18.756Z,86.50
2017-12-25T22:14:48.485Z,86.30
2017-12-25T22:17:23.436Z,85.90
2017-12-25T22:19:58.841Z,86.10
2017-12-25T22:22:28.287Z,85.10
2017-12-25T22:24:58.278Z,85.20
2017-12-25T22:27:28.519Z,86.00
2017-12-25T22:29:58.026Z,86.00
2017-12-25T22:32:27.419Z,86.20
2017-12-25T22:34:58.107Z,86.20
2017-12-25T22:37:27.264Z,86.00
2017-12-25T22:39:56.368Z,85.90
2017-12-25T22:42:29.587Z,86.00
2017-12-25T22:45:02.355Z,85.60
2017-12-25T22:47:39.168Z,85.80
2017-12-25T22:50:20.873Z,85.80
2017-12-25T22:52:51.147Z,85.90
2017-12-25T22:55:30.724Z,86.20
2017-12-25T22:58:00.164Z,86.10
2017-12-25T23:00:29.703Z,86.60
2017-12-25T23:02:59.997Z,86.60
2017-12-25T23:05:30.089Z,86.60
2017-12-25T23:08:00.072Z,86.70
2017-12-25T23:10:29.919Z,86.60
2017-12-25T23:13:00.791Z,86.50
2017-12-25T23:15:30.328Z,86.50
2017-12-25T23:17:59.904Z,86.90
2017-12-25T23:20:29.570Z,87.00
2017-12-25T23:23:10.384Z,85.80
2017-12-25T23:25:40.040Z,85.70
2017-12-25T23:28:09.504Z,85.80
2017-12-25T23:30:38.510Z,85.70
2017-12-25T23:33:10.858Z,86.70
2017-12-25T23:35:40.068Z,86.50
2017-12-25T23:38:09.267Z,87.10
2017-12-25T23:40:40.300Z,87.50
2017-12-25T23:43:09.710Z,87.80
2017-12-25T23:45:38.887Z,88.20
2017-12-25T23:48:08.033Z,88.70
2017-12-25T23:50:38.316Z,89.10
2017-12-25T23:53:08.878Z,89.30
2017-12-25T23:55:38.685Z,89.60
2017-12-25T23:58:08.013Z,89.70
